Time;durP1;ratioP1;P1;durP2;ratioP2;P2;SDS_P1;SDS_P2;PMS_P1;PMS_P2;Temp;Humidity;BMP_temperature;BMP_pressure;BME280_temperature;BME280_humidity;BME280_pressure;Samples;Min_cycle;Max_cycle;Signal;HPM_P1;HPM_P2
2022/06/25 00:01:40;;;;;;;14.32;6.38;;;16.00;99.90;;;;;;5293773;28;20033;-76
2022/06/25 00:07:01;;;;;;;10.48;6.43;;;16.20;99.90;;;;;;5293914;28;20031;-75
2022/06/25 00:09:32;;;;;;;9.40;5.40;;;16.00;99.90;;;;;;5293804;28;20032;-76
2022/06/25 00:14:52;;;;;;;11.80;6.28;;;16.00;99.90;;;;;;5293939;28;20080;-76
2022/06/25 00:17:23;;;;;;;13.30;6.30;;;15.40;99.90;;;;;;5293421;28;20047;-76
2022/06/25 00:19:54;;;;;;;11.10;7.07;;;16.00;99.90;;;;;;5293316;28;20397;-75
2022/06/25 00:22:25;;;;;;;11.90;6.38;;;16.30;99.90;;;;;;5293497;28;20551;-77
2022/06/25 00:24:56;;;;;;;8.48;5.05;;;15.80;99.90;;;;;;5293201;28;20028;-75
2022/06/25 00:27:28;;;;;;;15.57;6.88;;;15.50;99.90;;;;;;5293207;28;20059;-76
2022/06/25 00:29:58;;;;;;;11.45;6.72;;;16.00;99.90;;;;;;5292499;28;20085;-77
2022/06/25 00:32:29;;;;;;;9.90;6.63;;;15.50;99.90;;;;;;5293086;28;20027;-75
2022/06/25 00:35:00;;;;;;;10.60;6.70;;;15.60;99.90;;;;;;5293079;28;20023;-77
2022/06/25 00:37:31;;;;;;;12.45;6.75;;;15.60;99.90;;;;;;5293097;28;20110;-75
2022/06/25 00:40:03;;;;;;;9.70;6.82;;;15.50;99.90;;;;;;5293121;28;20102;-76
2022/06/25 00:42:34;;;;;;;11.55;7.13;;;15.50;99.90;;;;;;5274815;28;20031;-76
2022/06/25 00:45:05;;;;;;;9.75;6.95;;;15.40;99.90;;;;;;5292844;28;20046;-77
2022/06/25 00:47:36;;;;;;;14.35;6.80;;;15.40;99.90;;;;;;5292842;28;20522;-77
2022/06/25 00:50:08;;;;;;;12.95;7.35;;;15.40;99.90;;;;;;5292810;28;20099;-76
2022/06/25 00:52:42;;;;;;;11.57;7.85;;;15.50;99.90;;;;;;5292535;28;20402;-75
2022/06/25 00:55:13;;;;;;;12.20;8.20;;;15.50;99.90;;;;;;5292671;28;20016;-76
2022/06/25 00:57:44;;;;;;;12.60;7.13;;;15.40;99.90;;;;;;5292568;28;20078;-77
2022/06/25 01:00:17;;;;;;;11.70;7.00;;;15.40;99.90;;;;;;5292594;28;20032;-77
2022/06/25 01:02:48;;;;;;;11.98;6.75;;;15.30;99.90;;;;;;5292497;28;20108;-77
2022/06/25 01:05:19;;;;;;;11.65;6.82;;;15.30;99.90;;;;;;5292416;28;20095;-75
2022/06/25 01:07:50;;;;;;;10.18;7.22;;;15.40;99.90;;;;;;5292399;28;20032;-75
2022/06/25 01:10:21;;;;;;;11.82;7.95;;;15.30;99.90;;;;;;5292251;28;20023;-76
2022/06/25 01:12:52;;;;;;;15.57;9.15;;;15.60;99.90;;;;;;5291852;28;20048;-76
2022/06/25 01:15:23;;;;;;;15.10;8.55;;;15.80;99.90;;;;;;5292067;28;20415;-76
2022/06/25 01:17:53;;;;;;;16.42;9.20;;;15.60;99.90;;;;;;5292390;28;20439;-76
2022/06/25 01:20:24;;;;;;;14.38;8.32;;;15.60;99.90;;;;;;5292224;28;20128;-77
2022/06/25 01:22:56;;;;;;;11.60;7.72;;;15.70;99.90;;;;;;5291917;28;20085;-75
2022/06/25 01:25:34;;;;;;;11.90;8.30;;;15.80;99.90;;;;;;5292195;28;20035;-75
2022/06/25 01:28:06;;;;;;;16.30;9.00;;;15.70;99.90;;;;;;5292281;28;20102;-76
2022/06/25 01:30:37;;;;;;;13.50;8.55;;;15.80;99.90;;;;;;5291825;28;20072;-77
2022/06/25 01:33:09;;;;;;;18.55;8.70;;;15.60;99.90;;;;;;5291638;28;20050;-77
2022/06/25 01:35:40;;;;;;;14.15;8.85;;;16.00;99.90;;;;;;5291686;28;20050;-75
2022/06/25 01:38:11;;;;;;;13.80;8.10;;;15.50;99.90;;;;;;5292160;28;20032;-76
2022/06/25 01:40:42;;;;;;;13.50;8.73;;;15.70;99.90;;;;;;5290871;28;20082;-76
2022/06/25 01:43:12;;;;;;;12.80;9.00;;;15.60;99.90;;;;;;5272848;28;20028;-76
2022/06/25 01:45:43;;;;;;;16.40;9.10;;;15.60;99.90;;;;;;5291495;28;20040;-77
2022/06/25 01:48:14;;;;;;;14.95;9.45;;;15.40;99.90;;;;;;5291699;28;20023;-76
2022/06/25 01:50:45;;;;;;;12.70;8.27;;;15.40;99.90;;;;;;5291447;28;20024;-75
2022/06/25 01:53:15;;;;;;;13.70;8.93;;;15.60;99.90;;;;;;5291327;28;20074;-76
2022/06/25 01:55:46;;;;;;;17.58;9.05;;;15.80;99.90;;;;;;5291591;28;20047;-75
2022/06/25 01:58:18;;;;;;;14.43;8.18;;;15.60;99.90;;;;;;5291203;28;20026;-77
2022/06/25 02:00:49;;;;;;;16.17;8.40;;;15.60;99.90;;;;;;5291129;28;20483;-77
2022/06/25 02:03:20;;;;;;;14.68;8.73;;;15.60;99.90;;;;;;5291422;28;20375;-76
2022/06/25 02:05:57;;;;;;;12.25;8.60;;;15.50;99.90;;;;;;5291046;28;20024;-76
2022/06/25 02:08:35;;;;;;;13.35;8.32;;;15.70;99.90;;;;;;5291272;28;20046;-76
2022/06/25 02:11:08;;;;;;;15.32;9.45;;;15.70;99.90;;;;;;5290824;28;20062;-77
2022/06/25 02:13:39;;;;;;;13.48;8.93;;;15.60;99.90;;;;;;5291417;28;20031;-76
2022/06/25 02:16:09;;;;;;;13.10;9.02;;;15.70;99.90;;;;;;5291101;28;20496;-76
2022/06/25 02:18:40;;;;;;;15.00;9.25;;;15.70;99.90;;;;;;5290798;28;20497;-75
2022/06/25 02:21:11;;;;;;;14.32;8.75;;;16.10;99.90;;;;;;5290828;28;20034;-75
2022/06/25 02:23:42;;;;;;;13.65;8.73;;;15.90;99.90;;;;;;5290836;28;20031;-75
2022/06/25 02:26:12;;;;;;;17.65;9.15;;;15.80;99.90;;;;;;5290988;28;20156;-76
2022/06/25 02:28:43;;;;;;;21.35;8.95;;;16.10;99.90;;;;;;5290876;28;20031;-75
2022/06/25 02:31:14;;;;;;;19.25;8.88;;;16.10;99.90;;;;;;5290459;28;20478;-77
2022/06/25 02:33:45;;;;;;;17.45;8.38;;;15.80;99.90;;;;;;5290769;28;20024;-75
2022/06/25 02:36:16;;;;;;;16.67;8.73;;;15.50;99.90;;;;;;5290580;28;20027;-76
2022/06/25 02:38:46;;;;;;;12.57;8.15;;;15.40;99.90;;;;;;5290559;28;20371;-76
2022/06/25 02:41:17;;;;;;;14.93;10.32;;;15.30;99.90;;;;;;5290474;28;20031;-77
2022/06/25 02:43:48;;;;;;;14.52;10.30;;;15.10;99.90;;;;;;5272188;28;20027;-76
2022/06/25 02:46:18;;;;;;;15.60;8.90;;;15.40;99.90;;;;;;5290546;28;20096;-77
2022/06/25 02:48:49;;;;;;;14.00;9.63;;;15.70;99.90;;;;;;5290262;28;20120;-76
2022/06/25 02:51:20;;;;;;;17.45;9.95;;;15.70;99.90;;;;;;5290352;28;20131;-76
2022/06/25 02:53:51;;;;;;;16.05;10.10;;;15.90;99.90;;;;;;5290027;28;20047;-77
2022/06/25 02:59:31;;;;;;;20.15;10.18;;;15.90;99.90;;;;;;5225577;28;20029;-75
2022/06/25 03:02:02;;;;;;;14.38;9.80;;;15.60;99.90;;;;;;5225409;28;20504;-77
2022/06/25 03:04:34;;;;;;;13.98;9.18;;;15.70;99.90;;;;;;5243783;28;20051;-76
2022/06/25 03:07:05;;;;;;;19.73;9.98;;;15.50;99.90;;;;;;5271954;28;20054;-76
2022/06/25 03:09:36;;;;;;;13.10;9.25;;;15.90;99.90;;;;;;5271977;28;20024;-75
2022/06/25 03:12:07;;;;;;;17.15;9.40;;;15.70;99.90;;;;;;5289852;28;20185;-76
2022/06/25 03:14:40;;;;;;;20.58;9.38;;;15.80;99.90;;;;;;5290187;28;20552;-76
2022/06/25 03:17:11;;;;;;;16.40;9.95;;;16.00;99.90;;;;;;5290222;28;20023;-75
2022/06/25 03:19:41;;;;;;;13.90;9.60;;;16.10;99.90;;;;;;5271743;28;20027;-75
2022/06/25 03:22:12;;;;;;;12.38;8.93;;;16.30;99.90;;;;;;5289867;28;20020;-76
2022/06/25 03:24:43;;;;;;;15.82;9.18;;;16.70;99.90;;;;;;5289976;28;20106;-76
2022/06/25 03:27:14;;;;;;;13.52;9.10;;;16.70;99.90;;;;;;5290069;28;20022;-76
2022/06/25 03:29:44;;;;;;;15.23;8.60;;;16.90;99.90;;;;;;5289852;28;20031;-76
2022/06/25 03:32:15;;;;;;;15.52;8.88;;;16.80;99.90;;;;;;5289962;28;20102;-76
2022/06/25 03:34:46;;;;;;;14.65;9.57;;;16.80;99.90;;;;;;5289890;28;20028;-77
2022/06/25 03:37:17;;;;;;;17.45;8.75;;;17.00;99.90;;;;;;5289718;28;20027;-77
2022/06/25 03:39:48;;;;;;;15.85;8.57;;;17.00;99.90;;;;;;5271786;28;20057;-76
2022/06/25 03:42:18;;;;;;;13.65;9.02;;;17.20;99.90;;;;;;5289689;28;20019;-76
2022/06/25 03:44:49;;;;;;;15.35;8.85;;;17.20;99.90;;;;;;5289722;28;20424;-75
2022/06/25 03:47:20;;;;;;;14.50;8.77;;;17.40;99.90;;;;;;5289953;28;20508;-75
2022/06/25 03:49:50;;;;;;;14.65;8.75;;;17.40;99.90;;;;;;5289710;28;20023;-76
2022/06/25 03:52:21;;;;;;;13.25;8.07;;;17.40;99.90;;;;;;5290088;28;20356;-75
2022/06/25 03:54:52;;;;;;;13.77;7.18;;;17.50;99.90;;;;;;5289739;28;20020;-76
2022/06/25 03:57:23;;;;;;;14.20;7.93;;;17.70;99.90;;;;;;5289895;28;20031;-75
2022/06/25 03:59:53;;;;;;;13.95;7.93;;;17.70;99.90;;;;;;5289717;28;20027;-77
2022/06/25 04:02:24;;;;;;;13.52;7.25;;;17.80;99.90;;;;;;5289675;28;20524;-75
2022/06/25 04:04:55;;;;;;;12.70;7.53;;;18.00;99.90;;;;;;5291126;28;20102;-76
2022/06/25 04:07:26;;;;;;;11.13;6.63;;;18.10;99.90;;;;;;5293323;28;20494;-76
2022/06/25 04:09:56;;;;;;;11.55;6.85;;;18.40;99.90;;;;;;5293459;28;20023;-76
2022/06/25 04:12:27;;;;;;;9.32;6.43;;;18.50;99.90;;;;;;5293135;28;20048;-77
2022/06/25 04:14:58;;;;;;;14.95;7.55;;;18.70;99.90;;;;;;5293481;28;20039;-75
2022/06/25 04:17:29;;;;;;;14.75;7.50;;;18.80;99.90;;;;;;5293207;28;20035;-75
2022/06/25 04:20:00;;;;;;;12.27;6.80;;;18.60;99.90;;;;;;5293212;28;20048;-76
2022/06/25 04:22:30;;;;;;;12.57;7.20;;;18.90;99.90;;;;;;5293324;28;20026;-76
2022/06/25 04:25:01;;;;;;;13.77;6.32;;;18.70;99.90;;;;;;5293178;28;20592;-77
2022/06/25 04:30:21;;;;;;;12.40;6.63;;;19.20;99.90;;;;;;5293120;28;20026;-77
2022/06/25 04:32:52;;;;;;;17.40;7.43;;;19.50;99.90;;;;;;5292883;28;20352;-76
2022/06/25 04:35:22;;;;;;;11.13;6.75;;;19.40;99.90;;;;;;5292902;28;20055;-76
2022/06/25 04:37:53;;;;;;;10.93;6.18;;;19.50;99.90;;;;;;5292990;28;20477;-75
2022/06/25 04:40:24;;;;;;;11.27;6.32;;;19.80;99.90;;;;;;5293053;28;20460;-76
2022/06/25 04:42:56;;;;;;;13.55;6.68;;;20.00;99.90;;;;;;5292758;28;20066;-76
2022/06/25 04:45:27;;;;;;;13.18;6.55;;;19.90;99.90;;;;;;5292843;28;20080;-76
2022/06/25 04:48:04;;;;;;;14.25;6.20;;;19.70;99.90;;;;;;5292773;28;20371;-75
2022/06/25 04:50:35;;;;;;;14.27;6.63;;;19.80;99.90;;;;;;5292681;28;20016;-77
2022/06/25 04:53:05;;;;;;;10.38;6.53;;;19.80;99.90;;;;;;5292603;28;20027;-77
2022/06/25 04:55:36;;;;;;;11.45;6.30;;;19.90;99.90;;;;;;5292482;28;20048;-77
2022/06/25 04:58:07;;;;;;;12.35;6.80;;;20.10;99.90;;;;;;5292728;28;20096;-75
2022/06/25 05:00:38;;;;;;;13.75;6.15;;;20.50;99.90;;;;;;5292331;28;20146;-75
2022/06/25 05:03:09;;;;;;;14.93;6.45;;;20.60;99.90;;;;;;5292421;28;20105;-75
2022/06/25 05:05:40;;;;;;;11.15;5.78;;;20.90;99.90;;;;;;5292373;28;20022;-75
2022/06/25 05:08:10;;;;;;;11.02;6.13;;;21.00;99.90;;;;;;5292417;28;20466;-77
2022/06/25 05:10:41;;;;;;;10.65;5.38;;;21.40;99.90;;;;;;5273708;28;20535;-77
2022/06/25 05:13:12;;;;;;;13.45;5.15;;;21.30;99.90;;;;;;5292334;28;20067;-76
2022/06/25 05:15:43;;;;;;;12.00;4.80;;;21.40;99.90;;;;;;5291887;28;20080;-76
2022/06/25 05:18:14;;;;;;;8.48;4.85;;;21.30;99.90;;;;;;5292068;28;20397;-77
2022/06/25 05:20:45;;;;;;;15.30;6.13;;;21.20;99.90;;;;;;5273784;28;20073;-76
2022/06/25 05:23:16;;;;;;;12.40;5.35;;;21.00;99.90;;;;;;5291976;28;20019;-76
2022/06/25 05:25:47;;;;;;;11.25;5.70;;;21.00;99.90;;;;;;5291912;28;20016;-75
2022/06/25 05:28:18;;;;;;;13.13;5.95;;;21.20;99.90;;;;;;5291923;28;20035;-76
2022/06/25 05:30:49;;;;;;;11.25;5.57;;;21.30;99.90;;;;;;5291939;28;20024;-75
2022/06/25 05:33:20;;;;;;;8.60;5.63;;;21.60;99.90;;;;;;5291602;28;20467;-75
2022/06/25 05:35:50;;;;;;;8.30;5.28;;;22.00;99.90;;;;;;5291932;28;20043;-75
2022/06/25 05:38:21;;;;;;;11.02;5.18;;;22.10;99.90;;;;;;5291828;28;20528;-76
2022/06/25 05:40:52;;;;;;;10.75;3.70;;;22.40;99.90;;;;;;5291571;28;20024;-76
2022/06/25 05:43:23;;;;;;;7.72;3.60;;;22.90;99.90;;;;;;5291661;28;20039;-77
2022/06/25 05:45:53;;;;;;;7.68;3.42;;;22.80;99.90;;;;;;5291566;28;20012;-75
2022/06/25 05:48:24;;;;;;;8.65;4.10;;;22.90;99.90;;;;;;5291581;28;20027;-77
2022/06/25 05:50:55;;;;;;;8.93;4.57;;;23.00;99.90;;;;;;5291426;28;20027;-75
2022/06/25 05:53:27;;;;;;;7.55;4.25;;;23.00;99.90;;;;;;5291394;28;20540;-77
2022/06/25 05:55:58;;;;;;;9.48;4.45;;;23.40;99.90;;;;;;5291226;28;20022;-77
2022/06/25 05:58:28;;;;;;;13.43;4.68;;;23.30;99.90;;;;;;5291371;28;20028;-75
2022/06/25 06:00:59;;;;;;;9.48;4.40;;;23.80;99.90;;;;;;5291233;28;20020;-75
2022/06/25 06:03:30;;;;;;;7.57;3.97;;;24.00;99.90;;;;;;5291347;28;20034;-76
2022/06/25 06:06:01;;;;;;;10.82;3.33;;;24.10;99.90;;;;;;5291042;28;20024;-77
2022/06/25 06:08:31;;;;;;;9.90;3.25;;;24.50;99.90;;;;;;5291075;28;20028;-77
2022/06/25 06:11:02;;;;;;;7.78;3.25;;;25.20;99.90;;;;;;5290595;28;20046;-75
2022/06/25 06:13:33;;;;;;;7.25;3.17;;;24.20;99.90;;;;;;5290879;28;20043;-75
2022/06/25 06:16:04;;;;;;;4.75;2.58;;;24.70;99.90;;;;;;5291056;28;20539;-76
2022/06/25 06:18:35;;;;;;;9.40;2.85;;;24.50;99.90;;;;;;5290983;28;20540;-76
2022/06/25 06:21:05;;;;;;;7.75;2.42;;;24.90;99.90;;;;;;5290716;28;20020;-76
2022/06/25 06:23:36;;;;;;;9.23;2.90;;;25.10;99.90;;;;;;5290770;28;20055;-77
2022/06/25 06:26:07;;;;;;;9.90;2.40;;;25.30;99.90;;;;;;5290804;28;20023;-77
2022/06/25 06:28:38;;;;;;;7.40;2.60;;;25.40;99.90;;;;;;5290252;28;20080;-77
2022/06/25 06:31:09;;;;;;;13.82;2.78;;;25.60;99.90;;;;;;5290501;28;20098;-77
2022/06/25 06:33:40;;;;;;;7.65;2.22;;;25.60;99.90;;;;;;5290587;28;20498;-77
2022/06/25 06:36:12;;;;;;;10.65;2.30;;;25.60;99.90;;;;;;5290546;28;20028;-76
2022/06/25 06:38:43;;;;;;;3.10;1.90;;;25.80;99.90;;;;;;5290625;28;20099;-76
2022/06/25 06:41:16;;;;;;;3.83;1.60;;;25.90;99.90;;;;;;5290421;28;20375;-76
2022/06/25 06:43:47;;;;;;;10.07;1.63;;;25.90;99.90;;;;;;5290279;28;20395;-77
2022/06/25 06:46:19;;;;;;;7.43;1.65;;;26.10;99.90;;;;;;5290565;28;20028;-77
2022/06/25 06:48:49;;;;;;;5.03;1.40;;;26.20;99.90;;;;;;5290373;28;20024;-76
2022/06/25 06:51:20;;;;;;;8.25;1.67;;;26.30;99.90;;;;;;5290150;28;20030;-76
2022/06/25 06:53:51;;;;;;;9.75;1.80;;;26.40;99.90;;;;;;5290248;28;20348;-76
2022/06/25 06:56:22;;;;;;;4.03;1.52;;;26.40;99.90;;;;;;5290318;28;20019;-76
2022/06/25 06:58:53;;;;;;;4.93;1.58;;;26.30;99.90;;;;;;5290282;28;20034;-76
2022/06/25 07:01:24;;;;;;;5.07;1.70;;;26.30;99.90;;;;;;5290048;28;20030;-75
2022/06/25 07:03:54;;;;;;;3.63;1.40;;;26.30;99.90;;;;;;5290091;28;20474;-75
2022/06/25 07:06:25;;;;;;;6.55;1.58;;;26.20;99.90;;;;;;5290132;28;20389;-76
2022/06/25 07:08:56;;;;;;;8.30;1.85;;;26.10;99.90;;;;;;5290134;28;20062;-77
2022/06/25 07:11:30;;;;;;;8.23;1.67;;;26.40;99.90;;;;;;5289612;28;20052;-77
2022/06/25 07:14:04;;;;;;;6.10;1.73;;;26.40;99.90;;;;;;5290049;28;20471;-77
2022/06/25 07:16:34;;;;;;;8.80;1.75;;;26.10;99.90;;;;;;5289991;28;20024;-75
2022/06/25 07:19:05;;;;;;;6.18;1.50;;;26.10;99.90;;;;;;5290066;28;20024;-76
2022/06/25 07:21:36;;;;;;;2.78;1.40;;;26.40;99.90;;;;;;5290072;28;20027;-76
2022/06/25 07:24:07;;;;;;;1.58;1.48;;;26.30;99.90;;;;;;5289832;28;20042;-76
2022/06/25 07:26:38;;;;;;;5.38;1.40;;;26.60;99.90;;;;;;5289903;28;20024;-77
2022/06/25 07:29:09;;;;;;;4.82;1.50;;;26.70;99.90;;;;;;5289927;28;20371;-76
2022/06/25 07:31:40;;;;;;;7.97;1.70;;;26.70;99.90;;;;;;5289721;28;20110;-76
2022/06/25 07:34:12;;;;;;;5.45;1.73;;;26.50;99.90;;;;;;5289944;28;20122;-77
2022/06/25 07:36:42;;;;;;;3.65;1.40;;;26.60;99.90;;;;;;5289839;28;20072;-77
2022/06/25 07:39:13;;;;;;;6.47;1.58;;;26.70;99.90;;;;;;5292087;28;20428;-77
2022/06/25 07:41:44;;;;;;;8.23;1.65;;;26.50;99.90;;;;;;5294082;28;20374;-77
2022/06/25 07:44:15;;;;;;;2.83;1.30;;;26.60;99.90;;;;;;5294007;28;20035;-77
2022/06/25 07:46:45;;;;;;;6.57;1.30;;;26.70;99.90;;;;;;5293954;28;20023;-76
2022/06/25 07:49:16;;;;;;;6.43;1.60;;;26.80;99.90;;;;;;5275583;28;20027;-76
2022/06/25 07:51:56;;;;;;;6.50;1.70;;;26.90;99.90;;;;;;5294018;28;20032;-76
2022/06/25 07:54:27;;;;;;;;;;;27.20;99.90;;;;;;5294283;28;20027;-76
2022/06/25 07:56:58;;;;;;;8.02;1.65;;;26.90;99.90;;;;;;5293610;28;20335;-77
2022/06/25 07:59:29;;;;;;;6.75;1.63;;;26.90;99.90;;;;;;5293724;28;20088;-77
2022/06/25 08:02:00;;;;;;;2.20;1.40;;;27.20;99.90;;;;;;5275208;28;20043;-76
2022/06/25 08:04:31;;;;;;;6.10;1.63;;;27.00;99.90;;;;;;5293479;28;20078;-76
2022/06/25 08:07:02;;;;;;;5.57;1.75;;;27.40;99.90;;;;;;5293635;28;20016;-76
2022/06/25 08:09:34;;;;;;;7.80;1.90;;;27.30;99.90;;;;;;5293530;28;20028;-76
2022/06/25 08:12:05;;;;;;;8.40;2.17;;;27.50;99.90;;;;;;5292958;28;20044;-76
2022/06/25 08:14:36;;;;;;;6.93;2.75;;;27.00;99.90;;;;;;5293449;28;20408;-76
2022/06/25 08:17:07;;;;;;;7.90;2.30;;;27.40;99.90;;;;;;5293300;28;20375;-76
2022/06/25 08:19:38;;;;;;;6.32;1.70;;;27.40;99.90;;;;;;5293322;28;20024;-76
2022/06/25 08:22:08;;;;;;;4.15;2.45;;;27.20;99.90;;;;;;5293240;28;20494;-77
2022/06/25 08:24:39;;;;;;;8.52;2.60;;;27.90;99.90;;;;;;5293108;28;20028;-77
2022/06/25 08:27:10;;;;;;;3.53;2.03;;;27.80;99.90;;;;;;5292973;28;20352;-76
2022/06/25 08:29:41;;;;;;;4.43;1.70;;;28.00;99.90;;;;;;5293213;28;20027;-76
2022/06/25 08:32:12;;;;;;;8.05;2.20;;;27.70;99.90;;;;;;5292751;28;20030;-76
2022/06/25 08:34:42;;;;;;;10.40;2.50;;;28.30;99.90;;;;;;5292884;28;20034;-76
2022/06/25 08:37:13;;;;;;;3.10;1.90;;;28.30;99.90;;;;;;5292941;28;20526;-76
2022/06/25 08:39:44;;;;;;;5.60;1.65;;;28.00;99.90;;;;;;5292873;28;20387;-76
2022/06/25 08:42:15;;;;;;;3.80;2.05;;;28.00;99.90;;;;;;5292886;28;20102;-76
2022/06/25 08:44:45;;;;;;;5.82;1.70;;;27.90;99.90;;;;;;5292882;28;20043;-76
2022/06/25 08:47:17;;;;;;;3.33;1.58;;;27.80;99.90;;;;;;5274588;28;20038;-77
2022/06/25 08:49:48;;;;;;;5.72;1.70;;;28.40;99.90;;;;;;5273923;28;20027;-76
2022/06/25 08:52:21;;;;;;;8.20;1.80;;;28.40;99.90;;;;;;5292317;28;20028;-76
2022/06/25 09:06:17;;;;;;;3.70;1.85;;;28.40;99.90;;;;;;5308575;27;20382;-77
2022/06/25 09:09:11;;;;;;;5.00;2.00;;;28.70;99.90;;;;;;5308487;28;20019;-74
2022/06/25 09:12:04;;;;;;;3.08;1.80;;;28.60;99.90;;;;;;5308506;28;20031;-77
2022/06/25 09:14:37;;;;;;;4.40;1.80;;;28.80;99.90;;;;;;5307765;28;20181;-77
2022/06/25 09:17:12;;;;;;;5.55;1.80;;;29.20;99.90;;;;;;5308237;28;20485;-78
2022/06/25 09:19:47;;;;;;;6.18;2.05;;;29.30;99.90;;;;;;5308318;28;20019;-77
2022/06/25 09:22:20;;;;;;;5.18;2.17;;;29.30;99.90;;;;;;5308153;28;20019;-77
2022/06/25 09:24:57;;;;;;;4.57;2.00;;;29.80;99.90;;;;;;5307778;28;20015;-77
2022/06/25 09:27:35;;;;;;;4.20;1.70;;;29.20;99.90;;;;;;5307691;27;20030;-74
2022/06/25 09:30:16;;;;;;;4.85;1.85;;;29.00;99.90;;;;;;5301309;27;20020;-76
2022/06/25 09:32:57;;;;;;;6.15;2.00;;;29.30;99.90;;;;;;5308001;28;20031;-78
2022/06/25 09:35:36;;;;;;;2.47;1.80;;;29.60;99.90;;;;;;5288865;27;20047;-77
2022/06/25 09:38:12;;;;;;;2.10;1.60;;;28.80;99.90;;;;;;5285242;28;20027;-76
2022/06/25 09:40:56;;;;;;;2.53;1.55;;;29.10;99.90;;;;;;5286538;28;20024;-77
2022/06/25 09:43:34;;;;;;;3.08;1.75;;;29.50;99.90;;;;;;5286479;28;20115;-74
2022/06/25 09:46:06;;;;;;;2.90;2.05;;;29.90;99.90;;;;;;5286279;28;20024;-74
2022/06/25 09:48:38;;;;;;;3.38;1.70;;;29.70;99.90;;;;;;5286482;28;20095;-77
2022/06/25 09:51:15;;;;;;;4.88;1.77;;;29.50;99.90;;;;;;5286465;28;20090;-73
2022/06/25 09:53:54;;;;;;;6.03;1.60;;;29.70;99.90;;;;;;5285306;28;20435;-78
2022/06/25 09:56:31;;;;;;;2.90;1.63;;;29.50;99.90;;;;;;5284765;28;20027;-77
2022/06/25 09:59:02;;;;;;;4.80;1.30;;;29.10;99.90;;;;;;5282451;28;20066;-74
2022/06/25 10:01:33;;;;;;;3.35;1.58;;;29.10;99.90;;;;;;5286163;28;20028;-77
2022/06/25 10:04:04;;;;;;;6.32;1.90;;;29.00;99.90;;;;;;5286029;28;20036;-74
2022/06/25 10:06:38;;;;;;;3.72;1.70;;;28.70;99.90;;;;;;5275098;28;20047;-74
2022/06/25 10:09:10;;;;;;;2.30;1.63;;;29.10;99.90;;;;;;5271999;28;20073;-76
2022/06/25 10:11:41;;;;;;;3.13;1.60;;;28.70;99.90;;;;;;5272014;28;20488;-75
2022/06/25 10:14:13;;;;;;;4.22;1.70;;;29.30;99.90;;;;;;5271977;28;20028;-75
2022/06/25 10:16:44;;;;;;;3.38;1.70;;;29.30;99.90;;;;;;5271355;28;20028;-75
2022/06/25 10:19:18;;;;;;;2.78;1.33;;;29.10;99.90;;;;;;5270709;28;20375;-77
2022/06/25 10:21:49;;;;;;;3.10;1.40;;;29.50;99.90;;;;;;5271851;28;20028;-77
2022/06/25 10:24:20;;;;;;;9.35;1.70;;;29.20;99.90;;;;;;5271754;28;20520;-77
2022/06/25 10:26:51;;;;;;;4.05;2.15;;;29.00;99.90;;;;;;5271682;28;20473;-77
2022/06/25 10:29:31;;;;;;;4.68;1.40;;;28.80;99.90;;;;;;5271609;28;20024;-74
2022/06/25 10:32:18;;;;;;;5.18;1.50;;;29.40;99.90;;;;;;5271571;28;20063;-77
2022/06/25 10:35:00;;;;;;;4.88;1.63;;;29.20;99.90;;;;;;5270230;28;20474;-78
2022/06/25 10:38:12;;;;;;;9.20;1.80;;;28.90;99.90;;;;;;5270243;28;20028;-77
2022/06/25 10:40:50;;;;;;;4.55;1.38;;;28.80;99.90;;;;;;5227531;28;20388;-75
2022/06/25 10:43:37;;;;;;;6.43;1.67;;;28.90;99.90;;;;;;5227792;28;20055;-74
2022/06/25 10:46:22;;;;;;;3.35;1.63;;;28.90;99.90;;;;;;5210863;28;20264;-77
2022/06/25 10:49:08;;;;;;;3.33;1.67;;;28.90;99.90;;;;;;5227486;28;20037;-77
2022/06/25 10:51:43;;;;;;;7.35;1.75;;;29.50;99.90;;;;;;5227530;28;20033;-77
2022/06/25 10:54:34;;;;;;;3.58;1.85;;;28.90;99.90;;;;;;5210311;28;20131;-75
2022/06/25 10:57:04;;;;;;;4.35;1.63;;;28.80;99.90;;;;;;5210407;28;20025;-75
2022/06/25 10:59:35;;;;;;;3.75;1.92;;;28.80;99.90;;;;;;5227200;28;20495;-77
2022/06/25 11:02:12;;;;;;;3.45;2.10;;;29.40;99.90;;;;;;5227321;28;20486;-74
2022/06/25 11:04:53;;;;;;;5.35;2.30;;;29.50;99.90;;;;;;5226798;28;20045;-74
2022/06/25 11:07:26;;;;;;;7.20;1.70;;;29.40;99.90;;;;;;5227208;28;20420;-75
2022/06/25 11:10:01;;;;;;;7.75;2.05;;;29.70;99.90;;;;;;5227011;28;20059;-74
2022/06/25 11:12:34;;;;;;;5.15;1.95;;;28.80;99.90;;;;;;5269134;28;20035;-77
2022/06/25 11:15:07;;;;;;;3.42;1.92;;;27.80;99.90;;;;;;5270537;28;20411;-75
2022/06/25 11:17:38;;;;;;;3.38;1.95;;;27.40;99.90;;;;;;5269414;28;20032;-74
2022/06/25 11:20:11;;;;;;;6.53;1.90;;;27.10;99.90;;;;;;5270561;28;20409;-77
2022/06/25 11:22:47;;;;;;;9.80;2.13;;;27.70;99.90;;;;;;5270519;28;20387;-77
2022/06/25 11:30:57;;;;;;;4.03;2.28;;;27.10;99.90;;;;;;5270475;28;19911;-77
2022/06/25 11:33:27;;;;;;;4.65;2.15;;;27.00;99.90;;;;;;5270269;28;20156;-74
2022/06/25 11:36:08;;;;;;;7.80;2.40;;;27.00;99.90;;;;;;5270361;28;20032;-74
2022/06/25 11:38:56;;;;;;;3.60;2.28;;;26.80;99.90;;;;;;5270093;28;20024;-77
2022/06/25 11:41:30;;;;;;;3.50;2.10;;;27.10;99.90;;;;;;5270340;28;20085;-74
2022/06/25 11:44:08;;;;;;;10.32;2.42;;;27.10;99.90;;;;;;5270162;28;20020;-78
2022/06/25 11:46:38;;;;;;;3.25;1.92;;;27.20;99.90;;;;;;5269939;28;20490;-74
2022/06/25 11:49:10;;;;;;;5.90;2.33;;;27.70;99.90;;;;;;5269946;28;20081;-74
2022/06/25 11:51:46;;;;;;;6.25;2.40;;;27.50;99.90;;;;;;5269987;28;20406;-74
2022/06/25 11:54:22;;;;;;;5.32;2.28;;;26.80;99.90;;;;;;5268661;28;20036;-76
2022/06/25 11:56:55;;;;;;;4.68;2.15;;;27.40;99.90;;;;;;5269645;28;20024;-77
2022/06/25 11:59:31;;;;;;;2.75;1.70;;;27.90;99.90;;;;;;5269773;28;20356;-76
2022/06/25 12:02:07;;;;;;;5.22;2.15;;;28.30;99.90;;;;;;5269741;28;20020;-74
2022/06/25 12:04:48;;;;;;;9.00;2.50;;;28.50;99.90;;;;;;5269575;28;20471;-74
2022/06/25 12:07:23;;;;;;;6.50;2.28;;;28.80;99.90;;;;;;5269627;28;20355;-74
2022/06/25 12:09:57;;;;;;;7.68;2.60;;;28.60;99.90;;;;;;5269726;28;20031;-73
2022/06/25 12:12:28;;;;;;;4.38;2.20;;;28.30;99.90;;;;;;5269662;28;20471;-76
2022/06/25 12:15:01;;;;;;;4.30;2.25;;;27.80;99.90;;;;;;5269389;28;20054;-74
2022/06/25 12:17:36;;;;;;;4.40;2.38;;;28.30;99.90;;;;;;5269484;28;20019;-74
2022/06/25 12:20:12;;;;;;;3.97;2.30;;;29.10;99.90;;;;;;5269550;28;20097;-78
2022/06/25 12:22:50;;;;;;;4.10;2.00;;;28.80;99.90;;;;;;5269500;28;20028;-77
2022/06/25 12:25:29;;;;;;;4.45;2.00;;;29.10;99.90;;;;;;5269289;28;20464;-74
2022/06/25 12:28:00;;;;;;;5.32;2.28;;;29.40;99.90;;;;;;5269125;28;20016;-75
2022/06/25 12:30:32;;;;;;;6.07;1.80;;;29.20;99.90;;;;;;5269195;28;20031;-75
2022/06/25 12:33:05;;;;;;;2.83;2.10;;;29.00;99.90;;;;;;5269272;28;20043;-75
2022/06/25 12:35:40;;;;;;;4.18;2.08;;;28.00;99.90;;;;;;5268933;28;20108;-74
2022/06/25 12:38:12;;;;;;;4.80;2.30;;;28.30;99.90;;;;;;5269252;28;20348;-74
2022/06/25 12:40:48;;;;;;;4.13;2.17;;;28.40;99.90;;;;;;5269248;28;20434;-74
2022/06/25 12:43:20;;;;;;;4.80;2.25;;;28.80;99.90;;;;;;5269144;28;20043;-77
2022/06/25 12:45:53;;;;;;;6.15;2.22;;;28.20;99.90;;;;;;5268912;28;20053;-74
2022/06/25 12:48:31;;;;;;;3.15;2.10;;;28.10;99.90;;;;;;5269007;28;20024;-74
2022/06/25 12:51:10;;;;;;;2.95;2.00;;;28.60;99.90;;;;;;5269210;28;20087;-74
2022/06/25 12:53:43;;;;;;;3.83;2.28;;;28.30;99.90;;;;;;5269063;28;20024;-76
2022/06/25 12:56:14;;;;;;;8.48;2.70;;;28.10;99.90;;;;;;5268818;28;20077;-77
2022/06/25 12:58:45;;;;;;;3.72;2.20;;;28.30;99.90;;;;;;5269133;28;20024;-76
2022/06/25 13:01:25;;;;;;;5.95;2.47;;;28.70;99.90;;;;;;5267686;28;20028;-75
2022/06/25 13:03:55;;;;;;;3.17;2.25;;;29.10;99.90;;;;;;5268486;28;20028;-74
2022/06/25 13:06:26;;;;;;;6.15;2.45;;;28.60;99.90;;;;;;5268931;28;20039;-76
2022/06/25 13:08:57;;;;;;;4.70;2.25;;;27.90;99.90;;;;;;5269082;28;20020;-74
2022/06/25 13:11:28;;;;;;;11.07;2.42;;;28.10;99.90;;;;;;5268836;28;20035;-77
2022/06/25 13:13:59;;;;;;;4.60;2.45;;;28.80;99.90;;;;;;5268705;28;20032;-76
2022/06/25 13:16:29;;;;;;;3.95;2.25;;;28.30;99.90;;;;;;5268633;28;20103;-77
2022/06/25 13:19:00;;;;;;;4.30;2.42;;;28.10;99.90;;;;;;5268814;28;20008;-74
2022/06/25 13:21:31;;;;;;;5.55;2.40;;;28.50;99.90;;;;;;5268918;28;20104;-77
2022/06/25 13:24:02;;;;;;;3.50;2.08;;;28.70;99.90;;;;;;5268909;28;20028;-77
2022/06/25 13:26:32;;;;;;;5.72;2.67;;;29.00;99.90;;;;;;5268635;28;20051;-77
2022/06/25 13:29:03;;;;;;;6.10;2.40;;;28.90;99.90;;;;;;5268645;28;20477;-74
2022/06/25 13:31:34;;;;;;;6.38;2.60;;;28.30;99.90;;;;;;5268680;28;20422;-74
2022/06/25 13:34:07;;;;;;;8.43;2.40;;;28.80;99.90;;;;;;5268575;28;20024;-77
2022/06/25 13:36:38;;;;;;;3.90;2.25;;;28.70;99.90;;;;;;5268635;28;20365;-74
2022/06/25 13:39:09;;;;;;;4.68;2.10;;;27.20;99.90;;;;;;5268646;28;20082;-77